createdAt,value
2022-12-13T00:02:27.669Z,65.80
2022-12-13T00:05:14.537Z,65.60
2022-12-13T00:08:01.241Z,65.80
2022-12-13T00:10:46.540Z,66.20
2022-12-13T00:13:32.485Z,66.10
2022-12-13T00:16:22.828Z,66.30
2022-12-13T00:19:08.501Z,68.10
2022-12-13T00:21:54.016Z,67.00
2022-12-13T00:24:45.790Z,65.80
2022-12-13T00:27:31.474Z,65.80
2022-12-13T00:30:17.297Z,65.70
2022-12-13T00:33:02.845Z,65.60
2022-12-13T00:35:48.558Z,65.70
2022-12-13T00:38:35.236Z,65.90
2022-12-13T00:41:20.798Z,65.20
2022-12-13T00:44:06.501Z,65.30
2022-12-13T00:46:51.974Z,65.60
2022-12-13T00:49:37.213Z,65.80
2022-12-13T00:52:22.522Z,65.80
2022-12-13T00:55:08.576Z,65.60
2022-12-13T00:57:54.585Z,65.10
2022-12-13T01:00:40.234Z,66.00
2022-12-13T01:03:27.322Z,65.40
2022-12-13T01:06:21.594Z,67.00
2022-12-13T01:09:10.075Z,66.60
2022-12-13T01:12:00.400Z,66.80
2022-12-13T01:14:45.640Z,67.40
2022-12-13T01:17:31.177Z,68.70
2022-12-13T01:20:16.922Z,70.20
2022-12-13T01:23:02.557Z,71.20
2022-12-13T01:25:47.905Z,71.60
2022-12-13T01:28:33.747Z,72.60
2022-12-13T01:31:20.480Z,71.60
2022-12-13T01:34:10.608Z,70.80
2022-12-13T01:36:58.070Z,70.80
2022-12-13T01:39:44.462Z,70.80
2022-12-13T01:42:30.504Z,70.70
2022-12-13T01:45:43.225Z,70.30
2022-12-13T01:48:34.184Z,70.10
2022-12-13T01:51:25.858Z,69.90
2022-12-13T01:54:20.962Z,68.80
2022-12-13T01:57:09.409Z,69.30
2022-12-13T01:59:55.541Z,69.40
2022-12-13T02:02:41.603Z,68.40
2022-12-13T02:05:39.357Z,68.50
2022-12-13T02:08:25.554Z,68.90
2022-12-13T02:11:11.970Z,68.70
2022-12-13T02:13:57.242Z,69.00
2022-12-13T02:17:24.506Z,68.70
2022-12-13T02:20:31.337Z,69.00
2022-12-13T02:23:28.515Z,68.50
2022-12-13T02:26:46.387Z,68.80
2022-12-13T02:29:56.453Z,68.80
2022-12-13T02:32:50.053Z,68.70
2022-12-13T02:36:23.866Z,68.70
2022-12-13T02:39:17.478Z,68.40
2022-12-13T02:42:26.026Z,68.50
2022-12-13T02:45:21.280Z,69.40
2022-12-13T02:48:09.984Z,68.80
2022-12-13T02:50:57.265Z,68.90
2022-12-13T02:53:44.369Z,68.30
2022-12-13T02:56:32.052Z,68.00
2022-12-13T02:59:17.691Z,68.40
2022-12-13T03:02:35.048Z,68.90
2022-12-13T03:05:47.057Z,68.60
2022-12-13T03:09:24.483Z,68.00
2022-12-13T03:12:47.109Z,68.60
2022-12-13T03:15:42.555Z,67.90
2022-12-13T03:18:29.361Z,67.90
2022-12-13T03:21:14.984Z,67.60
2022-12-13T03:24:00.419Z,68.00
2022-12-13T03:26:47.854Z,68.50
2022-12-13T03:29:33.479Z,68.30
2022-12-13T03:32:18.895Z,69.00
2022-12-13T03:35:04.767Z,69.40
2022-12-13T03:38:08.205Z,68.40
2022-12-13T03:41:03.932Z,69.30
2022-12-13T03:43:50.121Z,69.90
2022-12-13T03:46:35.719Z,70.60
2022-12-13T03:49:21.165Z,70.10
2022-12-13T03:52:06.971Z,70.20
2022-12-13T03:54:52.142Z,71.60
2022-12-13T03:57:37.881Z,72.30
2022-12-13T04:00:23.653Z,72.40
2022-12-13T04:03:09.080Z,73.00
2022-12-13T04:05:54.656Z,72.80
2022-12-13T04:08:40.251Z,74.00
2022-12-13T04:11:43.851Z,73.90
2022-12-13T04:14:29.492Z,74.30
2022-12-13T04:17:14.666Z,74.40
2022-12-13T04:20:00.348Z,75.60
2022-12-13T04:22:45.595Z,76.90
2022-12-13T04:25:31.159Z,77.50
2022-12-13T04:28:22.269Z,80.00
2022-12-13T04:31:08.439Z,78.80
2022-12-13T04:33:53.964Z,79.50
2022-12-13T04:36:39.599Z,78.90
2022-12-13T04:39:24.770Z,78.80
2022-12-13T04:42:19.764Z,78.70
2022-12-13T04:45:05.924Z,80.10
2022-12-13T04:47:51.409Z,79.40
2022-12-13T04:50:37.059Z,79.20
2022-12-13T04:53:22.655Z,79.60
2022-12-13T04:56:08.699Z,80.00
2022-12-13T04:58:55.214Z,79.70
2022-12-13T05:01:40.779Z,78.90
2022-12-13T05:04:32.103Z,78.80
2022-12-13T05:07:18.373Z,78.40
2022-12-13T05:10:04.073Z,77.60
2022-12-13T05:12:49.435Z,78.30
2022-12-13T05:15:34.808Z,77.90
2022-12-13T05:18:20.124Z,78.10
2022-12-13T05:21:07.750Z,79.10
2022-12-13T05:23:53.325Z,79.00
2022-12-13T05:26:38.885Z,78.60
2022-12-13T05:29:24.410Z,78.10
2022-12-13T05:32:10.283Z,78.80
2022-12-13T05:34:56.080Z,79.00
2022-12-13T05:37:41.763Z,78.20
2022-12-13T05:40:29.140Z,77.10
2022-12-13T05:43:21.241Z,78.80
2022-12-13T05:46:07.531Z,78.00
2022-12-13T05:48:53.158Z,77.50
2022-12-13T05:51:38.562Z,76.80
2022-12-13T05:54:24.074Z,74.60
2022-12-13T05:57:09.468Z,75.30
2022-12-13T05:59:55.666Z,74.70
2022-12-13T06:02:43.185Z,74.60
2022-12-13T06:05:32.029Z,75.00
2022-12-13T06:08:24.696Z,74.50
2022-12-13T06:11:12.391Z,75.60
2022-12-13T06:14:06.912Z,76.50
2022-12-13T06:17:08.261Z,76.10
2022-12-13T06:19:53.713Z,76.70
2022-12-13T06:22:39.397Z,76.00
2022-12-13T06:25:31.277Z,75.40
2022-12-13T06:28:17.586Z,74.90
2022-12-13T06:31:05.054Z,75.10
2022-12-13T06:33:51.048Z,75.40
2022-12-13T06:36:36.442Z,75.20
2022-12-13T06:39:22.232Z,75.40
2022-12-13T06:42:14.053Z,74.70
2022-12-13T06:45:07.709Z,74.60
2022-12-13T06:47:53.379Z,76.10
2022-12-13T06:50:38.793Z,74.40
2022-12-13T06:53:24.907Z,74.20
2022-12-13T06:56:13.181Z,75.60
2022-12-13T06:59:02.010Z,76.10
2022-12-13T07:01:50.620Z,77.00
2022-12-13T07:04:36.698Z,77.00
2022-12-13T07:07:22.669Z,77.10
2022-12-13T07:10:12.648Z,76.70
2022-12-13T07:13:07.707Z,77.50
2022-12-13T07:15:53.129Z,78.80
2022-12-13T07:18:46.653Z,76.50
2022-12-13T07:21:32.116Z,76.50
2022-12-13T07:24:17.527Z,76.90
2022-12-13T07:27:04.052Z,77.80
2022-12-13T07:29:49.775Z,76.80
2022-12-13T07:32:34.935Z,76.50
2022-12-13T07:35:20.616Z,76.50
2022-12-13T07:38:11.427Z,75.60
2022-12-13T07:40:57.985Z,76.50
2022-12-13T07:43:43.527Z,76.20
2022-12-13T07:46:33.256Z,76.90
2022-12-13T07:49:20.043Z,75.20
2022-12-13T07:52:05.516Z,74.40
2022-12-13T07:54:51.582Z,73.40
2022-12-13T07:57:36.991Z,73.50
2022-12-13T08:00:22.709Z,74.00
2022-12-13T08:03:12.151Z,73.60
2022-12-13T08:06:06.145Z,72.00
2022-12-13T08:08:58.110Z,72.40
2022-12-13T08:11:43.522Z,72.90
2022-12-13T08:14:29.091Z,71.30
2022-12-13T08:17:14.765Z,71.80
2022-12-13T08:20:00.001Z,70.40
2022-12-13T08:22:49.551Z,67.70
2022-12-13T08:25:35.387Z,67.10
2022-12-13T08:28:22.002Z,68.50
2022-12-13T08:31:11.510Z,68.50
2022-12-13T08:33:57.465Z,68.60
2022-12-13T08:36:43.090Z,68.90
2022-12-13T08:39:28.578Z,67.70
2022-12-13T08:42:19.324Z,67.50
2022-12-13T08:45:06.585Z,66.30
2022-12-13T08:47:51.825Z,66.10
2022-12-13T08:50:37.482Z,63.80
2022-12-13T08:53:28.431Z,64.30
2022-12-13T08:56:16.239Z,64.40
2022-12-13T08:59:01.517Z,64.90
2022-12-13T09:01:47.623Z,66.20
2022-12-13T09:04:39.289Z,67.10
2022-12-13T09:07:25.048Z,65.20
2022-12-13T09:10:26.686Z,63.10
2022-12-13T09:13:13.485Z,63.50
2022-12-13T09:16:23.574Z,61.40
2022-12-13T09:19:25.971Z,61.60
2022-12-13T09:22:14.662Z,60.80
2022-12-13T09:25:02.551Z,61.40
2022-12-13T09:27:48.273Z,61.50
2022-12-13T09:30:34.241Z,62.20
2022-12-13T09:33:30.123Z,63.00
2022-12-13T09:36:21.177Z,60.90
2022-12-13T09:39:06.559Z,59.80
2022-12-13T09:42:01.152Z,61.00
2022-12-13T09:45:03.199Z,61.50
2022-12-13T09:47:50.968Z,60.80
2022-12-13T09:50:38.696Z,61.50
2022-12-13T09:53:26.451Z,62.00
2022-12-13T09:56:21.509Z,62.90
2022-12-13T09:59:14.102Z,62.70
2022-12-13T10:02:15.791Z,62.70
2022-12-13T10:05:39.482Z,64.20
2022-12-13T10:08:58.395Z,65.80
2022-12-13T10:11:52.883Z,65.30
2022-12-13T10:14:44.061Z,66.00
2022-12-13T10:17:38.095Z,65.60
2022-12-13T10:20:29.000Z,65.40
2022-12-13T10:23:35.764Z,66.20
2022-12-13T10:26:24.422Z,66.50
2022-12-13T10:29:10.994Z,68.00
2022-12-13T10:31:56.642Z,65.80
2022-12-13T10:34:42.208Z,64.70
2022-12-13T10:37:30.596Z,65.10
2022-12-13T10:40:32.250Z,62.90
2022-12-13T10:43:23.927Z,62.80
2022-12-13T10:46:24.994Z,62.60
2022-12-13T10:49:23.868Z,62.50
2022-12-13T10:52:31.100Z,62.80
2022-12-13T10:55:30.347Z,61.50
2022-12-13T10:58:19.920Z,60.70
2022-12-13T11:01:22.783Z,60.70
2022-12-13T11:04:29.188Z,59.60
2022-12-13T11:07:32.575Z,60.70
2022-12-13T11:10:27.563Z,62.20
2022-12-13T11:13:29.325Z,62.90
2022-12-13T11:16:23.196Z,62.70
2022-12-13T11:19:37.721Z,62.90
2022-12-13T11:22:32.710Z,62.90
2022-12-13T11:25:30.070Z,62.80
2022-12-13T11:28:26.730Z,62.20
2022-12-13T11:31:26.056Z,62.90
2022-12-13T11:34:45.552Z,63.60
2022-12-13T11:38:03.594Z,62.60
2022-12-13T11:40:59.914Z,63.60
2022-12-13T11:44:02.755Z,62.20
2022-12-13T11:47:00.839Z,61.10
2022-12-13T11:49:47.999Z,59.60
2022-12-13T11:52:42.670Z,60.80
2022-12-13T11:55:36.621Z,62.20
2022-12-13T11:59:02.337Z,62.70
2022-12-13T12:02:05.063Z,62.40
2022-12-13T12:04:59.697Z,63.50
2022-12-13T12:08:21.225Z,63.30
2022-12-13T12:11:10.580Z,66.10
2022-12-13T12:14:16.465Z,66.20
2022-12-13T12:17:04.121Z,65.60
2022-12-13T12:19:52.822Z,65.30
2022-12-13T12:23:06.862Z,66.40
2022-12-13T12:26:07.768Z,65.90
2022-12-13T12:29:08.148Z,65.80
2022-12-13T12:32:18.737Z,65.00
2022-12-13T12:35:38.129Z,67.30
2022-12-13T12:39:02.936Z,66.60
2022-12-13T12:41:48.181Z,64.90
2022-12-13T12:44:36.702Z,65.00
2022-12-13T12:51:31.285Z,64.60
2022-12-13T12:55:03.551Z,64.70
2022-12-13T12:58:19.295Z,65.00
2022-12-13T13:01:13.927Z,65.00
2022-12-13T13:04:06.384Z,64.90
2022-12-13T13:07:22.708Z,65.40
2022-12-13T13:10:16.895Z,64.40
2022-12-13T13:13:34.050Z,65.10
2022-12-13T13:16:35.171Z,65.60
2022-12-13T13:19:25.827Z,67.40
2022-12-13T13:22:34.421Z,65.50
2022-12-13T13:25:35.147Z,64.80
2022-12-13T13:28:25.591Z,65.50
2022-12-13T13:31:11.123Z,67.20
2022-12-13T13:33:57.282Z,65.50
2022-12-13T13:36:42.494Z,65.90
2022-12-13T13:39:34.046Z,65.30
2022-12-13T13:42:21.673Z,66.90
2022-12-13T13:45:27.197Z,66.20
2022-12-13T13:48:37.239Z,67.10
2022-12-13T13:52:27.288Z,66.10
2022-12-13T13:55:43.911Z,67.10
2022-12-13T13:59:01.398Z,70.30
2022-12-13T14:02:24.399Z,71.00
2022-12-13T14:05:25.145Z,72.50
2022-12-13T14:08:26.417Z,72.70
2022-12-13T14:11:44.893Z,73.00
2022-12-13T14:15:07.256Z,74.60
2022-12-13T14:18:14.207Z,74.90
2022-12-13T14:21:18.931Z,75.10
2022-12-13T14:24:30.359Z,76.70
2022-12-13T14:27:40.764Z,78.30
2022-12-13T14:30:28.098Z,77.90
2022-12-13T14:33:20.929Z,77.30
2022-12-13T14:36:13.381Z,77.40
2022-12-13T14:39:05.177Z,77.10
2022-12-13T14:41:56.501Z,76.40
2022-12-13T14:44:42.665Z,76.00
2022-12-13T14:47:28.332Z,76.40
2022-12-13T14:50:20.297Z,73.10
2022-12-13T14:53:06.663Z,73.10
2022-12-13T14:56:09.178Z,73.00
2022-12-13T14:58:57.685Z,74.20
2022-12-13T15:01:44.531Z,72.70
2022-12-13T15:04:33.809Z,74.50
2022-12-13T15:07:44.222Z,74.70
2022-12-13T15:10:48.464Z,74.00
2022-12-13T15:13:39.233Z,72.50
2022-12-13T15:16:28.466Z,74.40
2022-12-13T15:19:31.028Z,77.40
2022-12-13T15:22:17.828Z,78.30
2022-12-13T15:25:03.553Z,77.80
2022-12-13T15:27:52.373Z,79.20
2022-12-13T15:30:38.903Z,80.20
2022-12-13T15:33:34.150Z,81.50
2022-12-13T15:36:28.252Z,82.60
2022-12-13T15:39:16.738Z,82.70
2022-12-13T15:42:04.446Z,82.30
2022-12-13T15:45:02.582Z,80.50
2022-12-13T15:47:48.935Z,81.00
2022-12-13T15:50:41.053Z,81.40
2022-12-13T15:53:30.659Z,80.30
2022-12-13T15:56:33.160Z,79.40
2022-12-13T15:59:35.771Z,80.00
2022-12-13T16:02:24.633Z,80.40
2022-12-13T16:05:24.893Z,81.80
2022-12-13T16:08:28.057Z,81.70
2022-12-13T16:11:13.663Z,81.20
2022-12-13T16:14:30.700Z,81.60
2022-12-13T16:17:25.907Z,82.70
2022-12-13T16:20:15.031Z,84.60
2022-12-13T16:23:00.538Z,84.80
2022-12-13T16:25:54.355Z,87.00
2022-12-13T16:28:41.064Z,88.40
2022-12-13T16:31:31.536Z,87.80
2022-12-13T16:34:18.137Z,88.30
2022-12-13T16:37:08.608Z,87.90
2022-12-13T16:40:33.239Z,89.60
2022-12-13T16:43:20.904Z,92.80
2022-12-13T16:47:17.001Z,94.70
2022-12-13T16:49:25.604Z,95.20
2022-12-13T16:52:12.616Z,94.00
2022-12-13T16:55:00.598Z,94.00
2022-12-13T16:58:02.393Z,96.10
2022-12-13T17:00:47.687Z,96.30
2022-12-13T17:03:32.890Z,94.50
2022-12-13T17:06:23.829Z,94.60
2022-12-13T17:09:09.377Z,94.40
2022-12-13T17:11:54.747Z,95.70
2022-12-13T17:14:40.005Z,93.20
2022-12-13T17:17:25.604Z,94.40
2022-12-13T17:20:15.304Z,94.20
2022-12-13T17:23:01.510Z,95.00
2022-12-13T17:25:47.124Z,95.70
2022-12-13T17:28:43.988Z,95.40
2022-12-13T17:31:35.256Z,94.70
2022-12-13T17:34:21.600Z,95.30
2022-12-13T17:37:10.316Z,94.40
2022-12-13T17:39:56.095Z,94.20
2022-12-13T17:42:41.692Z,92.40
2022-12-13T17:45:27.333Z,92.80
2022-12-13T17:48:13.000Z,93.80
2022-12-13T17:50:58.464Z,96.10
2022-12-13T17:53:45.674Z,96.60
2022-12-13T17:56:31.569Z,97.30
2022-12-13T17:59:17.454Z,99.20
2022-12-13T18:02:03.067Z,99.90
2022-12-13T18:04:50.197Z,99.90
2022-12-13T18:07:35.781Z,99.90
2022-12-13T18:10:26.248Z,99.90
2022-12-13T18:13:15.224Z,99.90
2022-12-13T18:16:06.001Z,99.90
2022-12-13T18:18:55.912Z,99.90
2022-12-13T18:21:46.388Z,99.90
2022-12-13T18:24:31.949Z,99.90
2022-12-13T18:27:17.468Z,99.90
2022-12-13T18:30:03.340Z,99.90
2022-12-13T18:32:48.815Z,99.90
2022-12-13T18:35:34.428Z,99.90
2022-12-13T18:38:19.943Z,99.90
2022-12-13T18:41:11.149Z,99.90
2022-12-13T18:43:59.263Z,99.90
2022-12-13T18:46:46.831Z,99.90
2022-12-13T18:49:32.236Z,99.90
2022-12-13T18:52:18.437Z,99.90
2022-12-13T18:55:03.774Z,99.90
2022-12-13T18:57:51.716Z,99.90
2022-12-13T19:00:37.431Z,99.90
2022-12-13T19:03:23.207Z,99.90
2022-12-13T19:06:11.137Z,99.90
2022-12-13T19:08:58.011Z,99.90
2022-12-13T19:11:43.595Z,99.90
2022-12-13T19:14:29.032Z,99.90
2022-12-13T19:17:14.357Z,99.90
2022-12-13T19:20:02.102Z,99.90
2022-12-13T19:22:47.531Z,99.90
2022-12-13T19:25:33.000Z,99.90
2022-12-13T19:28:18.899Z,99.90
2022-12-13T19:31:09.213Z,99.90
2022-12-13T19:33:55.869Z,99.90
2022-12-13T19:36:41.387Z,99.90
2022-12-13T19:39:27.057Z,99.90
2022-12-13T19:42:12.650Z,99.90
2022-12-13T19:44:58.172Z,99.90
2022-12-13T19:47:48.697Z,99.90
2022-12-13T19:50:34.183Z,99.90
2022-12-13T19:53:19.530Z,99.90
2022-12-13T19:56:13.567Z,99.90
2022-12-13T19:58:59.313Z,99.90
2022-12-13T20:01:44.903Z,99.90
2022-12-13T20:04:30.616Z,99.90
2022-12-13T20:07:15.893Z,99.90
2022-12-13T20:10:01.497Z,99.90
2022-12-13T20:12:46.829Z,99.90
2022-12-13T20:15:32.531Z,99.90
2022-12-13T20:18:18.058Z,99.90
2022-12-13T20:21:13.752Z,99.90
2022-12-13T20:23:59.558Z,99.90
2022-12-13T20:26:45.014Z,99.90
2022-12-13T20:29:34.041Z,99.90
2022-12-13T20:32:21.048Z,99.90
2022-12-13T20:35:06.888Z,99.90
2022-12-13T20:37:53.216Z,99.90
2022-12-13T20:40:38.795Z,99.90
2022-12-13T20:43:24.709Z,99.90
2022-12-13T20:46:12.841Z,99.90
2022-12-13T20:49:00.928Z,99.90
2022-12-13T20:51:46.452Z,99.90
2022-12-13T20:54:31.991Z,99.90
2022-12-13T20:57:17.778Z,99.90
2022-12-13T21:00:04.466Z,99.90
2022-12-13T21:02:49.938Z,99.90
2022-12-13T21:05:35.611Z,99.90
2022-12-13T21:08:39.825Z,99.90
2022-12-13T21:11:31.282Z,99.90
2022-12-13T21:14:23.477Z,99.90
2022-12-13T21:17:11.129Z,99.90
2022-12-13T21:19:56.993Z,99.90
2022-12-13T21:22:42.683Z,99.90
2022-12-13T21:25:27.992Z,99.90
2022-12-13T21:28:13.445Z,99.90
2022-12-13T21:31:03.347Z,99.90
2022-12-13T21:33:54.667Z,99.90
2022-12-13T21:36:43.646Z,99.90
2022-12-13T21:39:29.371Z,99.90
2022-12-13T21:42:14.678Z,99.90
2022-12-13T21:45:02.318Z,99.90
2022-12-13T21:47:48.185Z,99.90
2022-12-13T21:50:33.907Z,99.90
2022-12-13T21:53:19.272Z,99.90
2022-12-13T21:56:24.961Z,99.90
2022-12-13T21:59:16.036Z,99.90
2022-12-13T22:02:12.016Z,99.90
2022-12-13T22:04:58.823Z,99.90
2022-12-13T22:07:44.524Z,99.90
2022-12-13T22:10:33.967Z,99.90
2022-12-13T22:13:19.384Z,99.90
2022-12-13T22:16:05.210Z,99.90
2022-12-13T22:18:54.266Z,99.90
2022-12-13T22:21:39.996Z,99.90
2022-12-13T22:24:25.643Z,99.70
2022-12-13T22:27:11.246Z,98.40
2022-12-13T22:29:57.780Z,96.50
2022-12-13T22:32:43.151Z,94.00
2022-12-13T22:35:28.485Z,93.10
2022-12-13T22:38:13.959Z,90.00
2022-12-13T22:41:03.556Z,89.70
2022-12-13T22:43:49.118Z,90.00
2022-12-13T22:46:34.672Z,89.70
2022-12-13T22:49:20.097Z,90.10
2022-12-13T22:52:05.527Z,88.60
2022-12-13T22:54:51.012Z,88.80
2022-12-13T22:57:36.723Z,88.80
2022-12-13T23:00:22.561Z,89.50
2022-12-13T23:03:08.180Z,89.40
2022-12-13T23:05:53.774Z,89.60
2022-12-13T23:08:43.518Z,89.20
2022-12-13T23:11:48.926Z,90.60
2022-12-13T23:14:34.316Z,90.70
2022-12-13T23:17:19.723Z,90.20
2022-12-13T23:20:05.843Z,90.40
2022-12-13T23:22:51.678Z,91.60
2022-12-13T23:25:37.156Z,91.80
2022-12-13T23:28:22.857Z,92.50
2022-12-13T23:31:09.603Z,93.00
2022-12-13T23:33:55.457Z,92.80
2022-12-13T23:36:41.114Z,92.90
2022-12-13T23:39:26.411Z,93.10
2022-12-13T23:42:11.730Z,94.40
2022-12-13T23:44:57.111Z,96.80
2022-12-13T23:47:42.720Z,99.90
2022-12-13T23:50:28.479Z,99.90
2022-12-13T23:53:13.976Z,99.90
2022-12-13T23:55:59.599Z,99.90
2022-12-13T23:58:46.053Z,99.90
